Time;durP1;ratioP1;P1;durP2;ratioP2;P2;SDS_P1;SDS_P2;PMS_P1;PMS_P2;Temp;Humidity;BMP_temperature;BMP_pressure;BME280_temperature;BME280_humidity;BME280_pressure;Samples;Min_cycle;Max_cycle;Signal;HPM_P1;HPM_P2
2023/07/19 00:00:40;;;;;;;;;3.00;3.00;;;;;33.35;25.82;100612.63;5086658;27;45312;-64
2023/07/19 00:03:05;;;;;;;;;0.00;0.00;;;;;33.40;25.97;100613.88;5099174;27;45472;-68
2023/07/19 00:05:31;;;;;;;;;5.00;5.00;;;;;33.29;25.92;100610.75;5100254;27;45274;-68
2023/07/19 00:07:57;;;;;;;;;3.00;3.00;;;;;33.33;25.53;100608.41;5092531;27;45562;-68
2023/07/19 00:10:22;;;;;;;;;3.25;3.25;;;;;33.14;25.43;100615.59;5094028;27;45353;-68
2023/07/19 00:12:48;;;;;;;;;2.75;2.75;;;;;32.96;25.94;100608.03;5097889;27;45385;-69
2023/07/19 00:15:13;;;;;;;;;3.25;3.25;;;;;32.99;25.99;100616.66;5099981;27;45325;-65
2023/07/19 00:17:41;;;;;;;;;4.00;4.00;;;;;32.78;26.29;100618.47;5099515;27;45874;-70
2023/07/19 00:20:07;;;;;;;;;2.00;2.00;;;;;32.65;26.19;100610.28;5099161;27;46166;-68
2023/07/19 00:22:32;;;;;;;;;3.00;3.00;;;;;32.73;26.42;100607.38;5099049;27;45412;-69
2023/07/19 00:24:57;;;;;;;;;4.00;4.00;;;;;32.47;26.53;100606.28;5093794;27;56101;-70
2023/07/19 00:27:24;;;;;;;;;1.75;1.75;;;;;32.49;26.31;100606.94;5084585;27;45354;-65
2023/07/19 00:29:49;;;;;;;;;3.25;3.25;;;;;32.53;26.47;100609.22;5099102;27;46205;-65
2023/07/19 00:32:15;;;;;;;;;5.00;4.25;;;;;32.57;26.23;100613.22;5097864;27;45391;-70
2023/07/19 00:34:40;;;;;;;;;3.00;3.00;;;;;32.55;25.97;100618.03;5087794;27;45409;-66
2023/07/19 00:37:05;;;;;;;;;4.50;4.50;;;;;32.57;26.39;100622.25;5098472;27;45152;-71
2023/07/19 00:39:31;;;;;;;;;3.50;3.50;;;;;32.64;25.78;100616.78;5098047;27;45313;-68
2023/07/19 00:41:57;;;;;;;;;5.50;5.50;;;;;32.61;26.54;100612.59;5098722;27;45504;-71
2023/07/19 00:44:22;;;;;;;;;3.50;3.50;;;;;32.58;26.13;100621.19;5088280;27;45541;-65
2023/07/19 00:46:48;;;;;;;;;3.00;3.00;;;;;32.70;26.64;100612.41;5099418;27;45552;-67
2023/07/19 00:49:13;;;;;;;;;3.00;3.00;;;;;32.66;26.82;100611.97;5094136;27;45454;-71
2023/07/19 00:51:40;;;;;;;;;4.25;4.25;;;;;32.68;26.40;100609.06;5098354;27;45420;-69
2023/07/19 00:54:07;;;;;;;;;3.00;3.00;;;;;32.75;26.09;100612.63;5081435;27;45541;-70
2023/07/19 00:56:33;;;;;;;;;2.75;2.75;;;;;32.64;26.01;100598.56;5098051;27;45472;-66
2023/07/19 00:59:01;;;;;;;;;2.00;2.00;;;;;32.77;26.50;100614.06;5097943;27;45320;-72
2023/07/19 01:01:26;;;;;;;;;3.25;3.25;;;;;32.79;26.32;100609.25;5113423;27;45442;-70
2023/07/19 01:03:52;;;;;;;;;3.00;3.00;;;;;32.78;26.88;100606.75;5098683;27;45238;-69
2023/07/19 01:06:19;;;;;;;;;4.00;4.00;;;;;32.73;26.51;100603.81;5097137;27;45573;-67
2023/07/19 01:08:44;;;;;;;;;3.00;3.00;;;;;32.71;26.31;100604.00;5097194;27;45953;-67
2023/07/19 01:11:10;;;;;;;;;2.00;2.00;;;;;32.64;26.99;100612.19;5086614;27;45311;-66
2023/07/19 01:13:35;;;;;;;;;3.75;3.75;;;;;32.70;26.21;100623.31;5077662;27;45409;-65
2023/07/19 01:16:01;;;;;;;;;3.25;3.25;;;;;32.64;26.33;100611.34;5094286;27;45516;-69
2023/07/19 01:18:26;;;;;;;;;3.00;3.00;;;;;32.68;26.42;100609.88;5096174;27;45549;-67
2023/07/19 01:20:52;;;;;;;;;2.25;2.25;;;;;32.52;26.74;100602.97;5097662;27;45324;-65
2023/07/19 01:23:17;;;;;;;;;3.25;3.25;;;;;32.53;26.94;100598.34;5098186;27;45416;-70
2023/07/19 01:25:43;;;;;;;;;3.75;3.75;;;;;32.51;27.01;100604.00;5098104;27;45479;-70
2023/07/19 01:28:08;;;;;;;;;2.00;2.00;;;;;32.55;26.62;100610.72;5097907;27;46728;-69
2023/07/19 01:30:34;;;;;;;;;3.00;3.00;;;;;32.55;26.50;100612.59;5097318;27;45411;-68
2023/07/19 01:32:59;;;;;;;;;2.00;2.00;;;;;32.52;26.50;100621.16;5096543;27;45483;-69
2023/07/19 01:35:24;;;;;;;;;3.50;3.50;;;;;32.44;26.34;100609.44;5096003;27;45515;-69
2023/07/19 01:37:50;;;;;;;;;2.00;2.00;;;;;32.38;26.99;100617.59;5091082;27;45466;-68
2023/07/19 01:40:15;;;;;;;;;2.75;2.75;;;;;32.37;26.54;100603.13;5088451;27;45257;-71
2023/07/19 01:42:41;;;;;;;;;3.75;3.75;;;;;32.43;26.25;100612.38;5090837;27;45331;-70
2023/07/19 01:45:07;;;;;;;;;2.00;2.00;;;;;32.31;26.54;100602.06;5092305;27;45468;-70
2023/07/19 01:47:34;;;;;;;;;3.50;3.50;;;;;32.36;26.66;100617.78;5094037;27;46595;-67
2023/07/19 01:49:59;;;;;;;;;2.00;2.00;;;;;32.27;26.44;100619.00;5086606;27;45432;-67
2023/07/19 01:52:25;;;;;;;;;2.25;2.25;;;;;32.30;26.41;100624.03;5096166;27;45867;-67
2023/07/19 01:54:50;;;;;;;;;2.00;2.00;;;;;32.27;27.09;100633.41;5096981;27;45548;-65
2023/07/19 01:57:16;;;;;;;;;3.00;3.00;;;;;32.26;26.17;100618.13;5096781;27;46116;-68
2023/07/19 01:59:41;;;;;;;;;2.00;2.00;;;;;32.38;26.95;100626.59;5087294;27;45561;-67
2023/07/19 02:02:06;;;;;;;;;3.00;3.00;;;;;32.34;26.92;100625.31;5089032;27;45468;-70
2023/07/19 02:04:32;;;;;;;;;3.00;3.00;;;;;32.24;26.80;100619.41;5098282;27;45395;-66
2023/07/19 02:06:57;;;;;;;;;3.00;3.00;;;;;32.34;26.16;100625.31;5093285;27;45358;-70
2023/07/19 02:09:22;;;;;;;;;3.00;3.00;;;;;32.45;26.67;100635.59;5098393;27;45502;-67
2023/07/19 02:11:48;;;;;;;;;3.00;3.00;;;;;32.42;26.40;100640.63;5097616;27;45543;-71
2023/07/19 02:14:13;;;;;;;;;3.00;3.00;;;;;32.34;26.53;100626.19;5094067;27;45417;-66
2023/07/19 02:16:38;;;;;;;;;4.00;4.00;;;;;32.34;26.14;100641.66;5096831;27;46179;-69
2023/07/19 02:19:06;;;;;;;;;3.00;3.00;;;;;32.40;26.55;100646.28;5098251;27;44776;-70
2023/07/19 02:21:32;;;;;;;;;4.00;4.00;;;;;32.31;26.13;100637.44;5088697;27;45479;-66
2023/07/19 02:23:58;;;;;;;;;3.00;3.00;;;;;32.37;26.46;100638.50;5095924;27;45305;-67
2023/07/19 02:26:24;;;;;;;;;5.00;5.00;;;;;32.40;26.66;100631.84;5095743;27;45720;-67
2023/07/19 02:28:50;;;;;;;;;2.50;2.50;;;;;32.51;26.11;100644.84;5095774;27;45538;-67
2023/07/19 02:31:15;;;;;;;;;3.00;3.00;;;;;32.38;26.08;100644.81;5095783;27;45443;-67
2023/07/19 02:33:41;;;;;;;;;3.00;3.00;;;;;32.17;26.94;100638.41;5083489;27;45463;-69
2023/07/19 02:36:06;;;;;;;;;2.75;2.75;;;;;32.16;26.96;100632.16;5097617;27;45442;-66
2023/07/19 02:38:31;;;;;;;;;4.50;4.50;;;;;32.28;26.42;100637.00;5098739;27;45328;-66
2023/07/19 02:40:59;;;;;;;;;0.00;0.00;;;;;32.27;26.32;100632.59;5098858;27;45347;-67
2023/07/19 02:43:24;;;;;;;;;4.00;4.00;;;;;32.27;27.16;100636.13;5080977;27;45563;-65
2023/07/19 02:45:51;;;;;;;;;1.00;1.00;;;;;31.98;26.89;100645.47;5083508;27;46483;-68
2023/07/19 02:48:17;;;;;;;;;3.00;3.00;;;;;31.72;26.94;100641.50;5116983;27;45334;-65
2023/07/19 02:50:47;;;;;;;;;0.00;0.00;;;;;31.51;27.89;100645.16;5099444;27;45473;-64
2023/07/19 02:53:12;;;;;;;;;4.25;4.25;;;;;31.32;28.38;100653.00;5084493;27;45647;-71
2023/07/19 02:55:38;;;;;;;;;4.00;4.00;;;;;31.25;28.47;100661.06;5097201;27;46212;-70
2023/07/19 02:58:03;;;;;;;;;4.25;4.25;;;;;31.14;28.50;100656.97;5100965;27;45535;-67
2023/07/19 03:00:29;;;;;;;;;3.50;3.50;;;;;31.31;28.28;100663.00;5101631;27;45227;-69
2023/07/19 03:02:55;;;;;;;;;3.00;3.00;;;;;31.35;28.34;100658.03;5101277;27;45381;-68
2023/07/19 03:05:21;;;;;;;;;2.00;2.00;;;;;31.29;28.17;100654.22;5099213;27;46073;-67
2023/07/19 03:07:46;;;;;;;;;2.00;2.00;;;;;31.19;28.71;100662.69;5081432;27;45682;-70
2023/07/19 03:10:12;;;;;;;;;2.00;2.00;;;;;31.00;29.00;100664.19;5097019;27;45283;-69
2023/07/19 03:12:37;;;;;;;;;3.75;3.75;;;;;31.19;28.69;100664.56;5101666;27;45583;-73
2023/07/19 03:15:03;;;;;;;;;2.25;2.25;;;;;31.27;28.81;100660.88;5102561;27;46215;-70
2023/07/19 03:17:28;;;;;;;;;2.00;2.00;;;;;31.14;28.22;100676.00;5101961;27;45452;-68
2023/07/19 03:19:54;;;;;;;;;3.25;3.25;;;;;30.99;28.96;100670.66;5101819;27;45343;-71
2023/07/19 03:22:19;;;;;;;;;3.00;3.00;;;;;31.02;29.11;100669.41;5103565;27;45465;-70
2023/07/19 03:24:45;;;;;;;;;3.25;3.25;;;;;30.86;29.17;100673.25;5102665;27;45412;-72
2023/07/19 03:27:10;;;;;;;;;3.00;3.00;;;;;30.74;29.44;100671.00;5100523;27;45380;-68
2023/07/19 03:29:36;;;;;;;;;2.00;2.00;;;;;30.77;29.54;100682.56;5100404;27;45755;-67
2023/07/19 03:32:02;;;;;;;;;4.00;3.75;;;;;30.80;29.64;100669.41;5099935;27;45563;-73
2023/07/19 03:34:27;;;;;;;;;5.00;5.00;;;;;30.81;29.49;100681.97;5092798;27;45584;-69
2023/07/19 03:36:52;;;;;;;;;2.00;2.00;;;;;30.80;29.71;100679.44;5093172;27;45332;-70
2023/07/19 03:39:18;;;;;;;;;3.50;3.50;;;;;30.54;29.54;100643.66;5083393;27;45447;-68
2023/07/19 03:41:43;;;;;;;;;4.25;4.25;;;;;30.80;29.83;100682.16;5094323;27;45325;-69
2023/07/19 03:44:09;;;;;;;;;2.00;2.00;;;;;30.82;29.49;100685.53;5097951;27;46232;-70
2023/07/19 03:46:34;;;;;;;;;3.25;3.25;;;;;30.67;29.83;100694.53;5100521;27;45399;-71
2023/07/19 03:49:00;;;;;;;;;2.50;2.50;;;;;30.53;30.06;100693.53;5100428;27;45175;-71
2023/07/19 03:51:25;;;;;;;;;3.75;3.75;;;;;30.38;29.96;100690.03;5086888;27;50219;-72
2023/07/19 03:53:51;;;;;;;;;3.00;3.00;;;;;30.47;29.38;100699.72;5094249;27;46213;-69
2023/07/19 03:56:16;;;;;;;;;4.25;4.25;;;;;30.45;29.30;100705.34;5096963;27;46257;-72
2023/07/19 03:58:45;;;;;;;;;3.50;3.50;;;;;30.36;29.15;100705.66;5100394;27;45226;-71
2023/07/19 04:01:10;;;;;;;;;2.50;2.50;;;;;30.10;29.08;100713.25;5093215;27;45365;-68
2023/07/19 04:03:36;;;;;;;;;1.00;1.00;;;;;30.11;29.15;100716.78;5081856;27;45394;-65
2023/07/19 04:06:01;;;;;;;;;2.25;2.25;;;;;30.02;29.13;100708.75;5095846;27;45363;-69
2023/07/19 04:08:27;;;;;;;;;2.00;2.00;;;;;29.98;29.35;100717.44;5080864;27;45436;-69
2023/07/19 04:10:52;;;;;;;;;2.00;2.00;;;;;29.78;28.59;100726.13;5114741;27;45326;-68
2023/07/19 04:13:17;;;;;;;;;2.00;2.00;;;;;29.70;28.60;100723.50;5081262;27;46380;-69
2023/07/19 04:15:43;;;;;;;;;2.50;2.50;;;;;29.65;28.98;100732.16;5096331;27;45709;-71
2023/07/19 04:18:08;;;;;;;;;2.75;2.75;;;;;29.50;29.29;100723.16;5099075;27;45681;-70
2023/07/19 04:20:36;;;;;;;;;3.00;3.00;;;;;29.52;29.02;100735.47;5097344;27;45562;-68
2023/07/19 04:23:02;;;;;;;;;3.50;3.00;;;;;29.44;29.02;100733.69;5088431;27;45691;-67
2023/07/19 04:25:27;;;;;;;;;1.75;1.75;;;;;29.15;29.75;100731.69;5103610;27;45460;-71
2023/07/19 04:27:53;;;;;;;;;1.00;1.00;;;;;29.26;29.61;100744.81;5099474;27;46217;-69
2023/07/19 04:30:19;;;;;;;;;2.50;2.50;;;;;29.35;29.95;100744.75;5099267;27;45589;-67
2023/07/19 04:32:45;;;;;;;;;1.00;1.00;;;;;29.37;29.75;100726.44;5097628;27;46147;-72
2023/07/19 04:35:10;;;;;;;;;2.00;2.00;;;;;29.40;29.99;100735.09;5100161;27;45385;-69
2023/07/19 04:37:38;;;;;;;;;2.00;2.00;;;;;29.21;30.00;100740.97;5116183;27;45413;-65
2023/07/19 04:40:06;;;;;;;;;1.25;1.25;;;;;29.11;29.90;100738.50;5098860;27;45583;-72
2023/07/19 04:42:31;;;;;;;;;1.00;1.00;;;;;29.13;29.85;100740.00;5098898;27;46144;-68
2023/07/19 04:44:56;;;;;;;;;1.00;1.00;;;;;29.12;29.77;100726.66;5093393;27;45333;-73
2023/07/19 04:47:22;;;;;;;;;1.00;1.00;;;;;29.24;29.99;100757.69;5088124;27;45381;-71
2023/07/19 04:49:47;;;;;;;;;0.00;0.00;;;;;29.13;29.83;100750.00;5079911;27;45454;-72
2023/07/19 04:52:12;;;;;;;;;2.00;2.00;;;;;29.16;29.81;100757.75;5089475;27;47327;-71
2023/07/19 04:54:38;;;;;;;;;2.00;2.00;;;;;29.09;30.02;100752.22;5081105;27;45857;-69
2023/07/19 04:57:05;;;;;;;;;1.00;1.00;;;;;29.12;29.74;100751.84;5097275;27;46019;-73
2023/07/19 04:59:30;;;;;;;;;1.00;1.00;;;;;29.17;29.92;100745.91;5098942;27;45485;-67
2023/07/19 05:01:56;;;;;;;;;2.75;2.75;;;;;29.41;29.39;100758.47;5098399;27;62349;-68
2023/07/19 05:04:21;;;;;;;;;1.50;1.50;;;;;29.36;29.39;100762.69;5099391;27;44764;-70
2023/07/19 05:06:47;;;;;;;;;1.00;1.00;;;;;29.39;29.24;100755.09;5096786;27;45300;-65
2023/07/19 05:09:12;;;;;;;;;2.25;2.25;;;;;29.48;29.57;100746.88;5098264;27;45602;-68
2023/07/19 05:11:39;;;;;;;;;2.00;2.00;;;;;29.59;29.30;100755.41;5097908;27;46271;-67
2023/07/19 05:14:05;;;;;;;;;3.75;3.75;;;;;29.71;29.17;100750.38;5096790;27;45377;-69
2023/07/19 05:16:30;;;;;;;;;2.75;2.75;;;;;29.73;28.90;100764.59;5098546;27;50128;-68
2023/07/19 05:18:56;;;;;;;;;2.00;2.00;;;;;29.70;29.14;100754.13;5098237;27;45187;-69
2023/07/19 05:21:22;;;;;;;;;3.75;3.75;;;;;29.88;29.04;100761.06;5105937;27;45906;-67
2023/07/19 05:23:48;;;;;;;;;2.00;2.00;;;;;29.91;28.91;100759.88;5118033;27;45810;-69
2023/07/19 05:26:14;;;;;;;;;0.50;0.50;;;;;29.80;29.04;100772.00;5111731;27;45261;-69
2023/07/19 05:28:39;;;;;;;;;2.00;2.00;;;;;29.91;29.21;100765.28;5093475;27;45543;-68
2023/07/19 05:31:08;;;;;;;;;2.00;2.00;;;;;29.98;28.81;100774.38;5109208;27;47257;-65
2023/07/19 05:33:33;;;;;;;;;2.50;2.50;;;;;29.99;29.03;100776.91;5095398;27;45495;-68
2023/07/19 05:36:00;;;;;;;;;5.25;5.25;;;;;30.25;28.53;100767.50;5096971;27;45338;-67
2023/07/19 05:38:26;;;;;;;;;2.75;2.00;;;;;30.51;28.33;100765.31;5085668;27;47481;-66
2023/07/19 05:40:51;;;;;;;;;2.50;2.50;;;;;30.58;28.14;100769.81;5075988;27;45489;-71
2023/07/19 05:43:17;;;;;;;;;3.00;3.00;;;;;30.54;28.27;100771.22;5084894;27;45264;-67
2023/07/19 05:45:42;;;;;;;;;2.00;2.00;;;;;30.42;28.46;100776.28;5097001;27;45188;-67
2023/07/19 05:48:07;;;;;;;;;1.25;1.25;;;;;30.39;28.37;100778.53;5095161;27;45429;-68
2023/07/19 05:50:33;;;;;;;;;3.00;3.00;;;;;30.18;28.77;100747.53;5096302;27;45332;-67
2023/07/19 05:52:58;;;;;;;;;3.75;3.75;;;;;30.24;29.03;100770.38;5092138;27;45373;-67
2023/07/19 05:55:24;;;;;;;;;3.00;3.00;;;;;30.36;28.56;100779.72;5094494;27;45500;-67
2023/07/19 05:57:50;;;;;;;;;3.00;3.00;;;;;30.46;28.94;100776.75;5092206;27;45470;-68
2023/07/19 06:00:22;;;;;;;;;3.25;3.25;;;;;30.63;28.54;100782.81;5095588;27;45534;-66
2023/07/19 06:02:48;;;;;;;;;2.50;2.00;;;;;30.66;28.02;100778.91;5094547;27;45482;-65
2023/07/19 06:05:14;;;;;;;;;2.25;2.25;;;;;30.84;28.15;100792.91;5092731;27;45232;-72
2023/07/19 06:07:40;;;;;;;;;1.00;1.00;;;;;30.84;27.96;100794.78;5112625;27;45970;-71
2023/07/19 06:10:06;;;;;;;;;1.75;1.75;;;;;30.77;28.17;100794.69;5096634;27;46202;-72
2023/07/19 06:12:31;;;;;;;;;1.00;1.00;;;;;30.79;28.25;100795.34;5094489;27;45843;-70
2023/07/19 06:14:57;;;;;;;;;2.00;2.00;;;;;30.74;27.86;100786.94;5089667;27;45499;-69
2023/07/19 06:17:22;;;;;;;;;3.25;3.25;;;;;30.77;28.42;100789.25;5111821;27;45527;-68
2023/07/19 06:19:48;;;;;;;;;2.00;2.00;;;;;30.86;28.52;100798.97;5104654;27;47599;-69
2023/07/19 06:22:13;;;;;;;;;1.00;1.00;;;;;30.89;28.68;100811.34;5097634;27;64588;-66
2023/07/19 06:24:38;;;;;;;;;3.00;3.00;;;;;30.92;29.04;100812.81;5094350;27;45511;-69
2023/07/19 06:27:04;;;;;;;;;1.00;1.00;;;;;30.80;29.25;100801.63;5101814;27;45526;-70
2023/07/19 06:29:29;;;;;;;;;2.00;2.00;;;;;30.89;29.32;100797.78;5109349;27;45415;-70
2023/07/19 06:31:55;;;;;;;;;2.00;2.00;;;;;31.09;29.46;100802.59;5109409;27;45262;-73
2023/07/19 06:34:20;;;;;;;;;0.25;0.25;;;;;31.11;29.91;100800.50;5095313;27;45429;-68
2023/07/19 06:36:45;;;;;;;;;1.00;1.00;;;;;31.06;30.02;100798.38;5085636;27;45441;-67
2023/07/19 06:39:11;;;;;;;;;2.00;2.00;;;;;31.03;29.97;100794.16;5089599;27;45580;-72
2023/07/19 06:41:36;;;;;;;;;1.75;1.75;;;;;31.10;30.07;100793.41;5100595;27;45457;-70
2023/07/19 06:44:02;;;;;;;;;1.25;1.25;;;;;31.27;30.30;100788.56;5097169;27;45665;-66
2023/07/19 06:46:27;;;;;;;;;1.00;1.00;;;;;31.32;29.97;100784.25;5112799;27;45384;-70
2023/07/19 06:48:52;;;;;;;;;0.00;0.00;;;;;31.26;29.68;100795.91;5091024;27;45462;-74
2023/07/19 06:51:18;;;;;;;;;2.25;2.25;;;;;31.32;30.26;100786.13;5100932;27;45461;-75
2023/07/19 06:53:43;;;;;;;;;1.25;1.25;;;;;31.28;29.92;100796.53;5102656;27;45417;-67
2023/07/19 06:56:08;;;;;;;;;1.00;1.00;;;;;31.28;30.15;100793.81;5096347;27;45835;-72
2023/07/19 06:58:34;;;;;;;;;1.00;1.00;;;;;31.28;30.65;100793.81;5095046;27;45423;-67
2023/07/19 07:00:59;;;;;;;;;1.50;1.50;;;;;31.41;30.58;100803.13;5097821;27;45403;-68
2023/07/19 07:03:25;;;;;;;;;0.75;0.75;;;;;31.33;30.57;100804.13;5098281;27;45670;-67
2023/07/19 07:05:50;;;;;;;;;2.00;2.00;;;;;31.32;30.53;100799.72;5096497;27;45553;-66
2023/07/19 07:08:16;;;;;;;;;2.00;2.00;;;;;31.46;30.81;100797.97;5097137;27;45548;-65
2023/07/19 07:10:42;;;;;;;;;1.25;1.25;;;;;31.58;30.74;100799.09;5100241;27;45341;-66
2023/07/19 07:13:08;;;;;;;;;0.25;0.00;;;;;31.58;30.61;100806.44;5093255;27;45413;-68
2023/07/19 07:15:33;;;;;;;;;2.25;2.25;;;;;31.51;30.53;100794.66;5075486;27;45404;-65
2023/07/19 07:17:58;;;;;;;;;2.00;2.00;;;;;31.50;30.87;100795.69;5074940;27;61166;-65
2023/07/19 07:20:24;;;;;;;;;2.00;2.00;;;;;31.37;30.93;100818.16;5093318;27;45174;-65
2023/07/19 07:22:50;;;;;;;;;2.00;2.00;;;;;31.46;30.95;100809.69;5089292;27;45367;-68
2023/07/19 07:25:16;;;;;;;;;1.00;1.00;;;;;31.67;30.82;100802.53;5097645;27;45392;-69
2023/07/19 07:27:44;;;;;;;;;2.00;2.00;;;;;31.93;30.18;100795.66;5098706;27;46356;-65
2023/07/19 07:30:09;;;;;;;;;3.50;3.50;;;;;32.22;29.84;100807.34;5098647;27;45432;-68
2023/07/19 07:32:35;;;;;;;;;2.00;2.00;;;;;32.33;30.12;100803.28;5096975;27;45422;-70
2023/07/19 07:35:00;;;;;;;;;2.25;2.25;;;;;32.45;30.45;100801.66;5097754;27;45661;-74
2023/07/19 07:37:25;;;;;;;;;1.00;1.00;;;;;32.63;29.57;100794.81;5112554;27;46090;-69
2023/07/19 07:39:51;;;;;;;;;1.00;1.00;;;;;32.67;29.83;100806.16;5096162;27;45415;-68
2023/07/19 07:42:16;;;;;;;;;1.00;1.00;;;;;32.67;28.88;100801.53;5096842;27;45589;-73
2023/07/19 07:44:41;;;;;;;;;1.00;1.00;;;;;32.83;29.23;100804.94;5096999;27;45423;-68
2023/07/19 07:47:07;;;;;;;;;1.75;1.75;;;;;33.16;28.59;100809.69;5097898;27;45436;-68
2023/07/19 07:49:33;;;;;;;;;2.75;2.75;;;;;33.14;28.45;100782.63;5099318;27;44913;-74
2023/07/19 07:51:59;;;;;;;;;2.00;2.00;;;;;33.51;28.47;100806.84;5099082;27;45431;-71
2023/07/19 07:54:24;;;;;;;;;2.00;2.00;;;;;33.82;28.41;100805.34;5115366;27;45606;-67
2023/07/19 07:56:50;;;;;;;;;1.00;1.00;;;;;34.27;27.86;100809.31;5098336;27;46917;-68
2023/07/19 07:59:15;;;;;;;;;1.50;1.50;;;;;34.44;27.54;100812.41;5098537;27;45334;-74
2023/07/19 08:01:41;;;;;;;;;2.00;2.00;;;;;34.46;27.10;100797.53;5098110;27;50184;-73
2023/07/19 08:04:09;;;;;;;;;1.75;1.75;;;;;34.86;26.74;100803.84;5100339;27;45346;-69
2023/07/19 08:06:36;;;;;;;;;0.25;0.25;;;;;34.94;26.63;100798.13;5098343;27;46228;-73
2023/07/19 08:09:02;;;;;;;;;0.00;0.00;;;;;34.92;26.06;100797.50;5099231;27;45471;-70
2023/07/19 08:11:27;;;;;;;;;1.00;1.00;;;;;34.79;25.92;100791.06;5098905;27;45358;-74
2023/07/19 08:13:53;;;;;;;;;0.75;0.75;;;;;34.83;25.68;100807.03;5098611;27;45271;-68
2023/07/19 08:16:19;;;;;;;;;1.75;1.75;;;;;35.05;25.77;100802.97;5098279;27;45366;-74
2023/07/19 08:18:45;;;;;;;;;1.00;1.00;;;;;34.88;25.68;100810.78;5113873;27;45267;-69
2023/07/19 08:21:10;;;;;;;;;2.00;2.00;;;;;34.75;25.81;100797.19;5097990;27;45268;-75
2023/07/19 08:23:36;;;;;;;;;1.00;1.00;;;;;34.94;25.32;100809.06;5098905;27;45461;-68
2023/07/19 08:26:02;;;;;;;;;4.00;4.00;;;;;34.99;25.38;100808.44;5098364;27;46110;-69
2023/07/19 08:28:27;;;;;;;;;2.00;2.00;;;;;35.11;25.53;100817.63;5098296;27;45337;-69
2023/07/19 08:30:53;;;;;;;;;1.00;1.00;;;;;35.18;25.20;100802.03;5099120;27;45294;-72
2023/07/19 08:33:23;;;;;;;;;1.50;1.50;;;;;35.26;25.30;100811.88;5099071;27;45490;-68
2023/07/19 08:35:52;;;;;;;;;1.75;1.75;;;;;35.27;24.91;100813.53;5098114;27;45487;-68
2023/07/19 08:38:18;;;;;;;;;1.75;1.75;;;;;35.44;24.75;100802.06;5099473;27;45825;-72
2023/07/19 08:40:59;;;;;;;;;2.75;2.75;;;;;35.68;24.69;100808.63;5098678;27;45408;-69
2023/07/19 08:43:26;;;;;;;;;4.75;4.75;;;;;36.00;24.65;100800.34;5101943;27;45273;-76
2023/07/19 08:45:52;;;;;;;;;1.50;1.50;;;;;35.94;24.54;100796.56;5099868;27;46318;-70
2023/07/19 08:48:19;;;;;;;;;2.00;2.00;;;;;35.81;24.46;100807.66;5098016;27;45266;-78
2023/07/19 08:50:53;;;;;;;;;2.25;2.25;;;;;35.75;24.35;100808.56;5098047;27;45376;-68
2023/07/19 08:53:19;;;;;;;;;1.50;1.50;;;;;35.73;24.24;100816.16;5099368;27;45330;-71
2023/07/19 08:55:44;;;;;;;;;1.25;1.25;;;;;35.83;24.45;100809.13;5113840;27;47234;-71
2023/07/19 08:58:10;;;;;;;;;4.25;4.25;;;;;35.56;24.52;100810.41;5097677;27;45342;-73
2023/07/19 09:00:35;;;;;;;;;5.50;5.50;;;;;35.46;24.34;100806.22;5097804;27;45455;-70
2023/07/19 09:03:00;;;;;;;;;1.00;1.00;;;;;35.65;24.29;100801.69;5096871;27;57812;-75
2023/07/19 09:05:30;;;;;;;;;1.00;1.00;;;;;35.56;24.29;100796.75;5097360;27;45467;-72
2023/07/19 09:08:02;;;;;;;;;4.00;4.00;;;;;35.83;24.33;100803.66;5097168;27;45184;-69
2023/07/19 09:10:28;;;;;;;;;3.75;3.25;;;;;35.98;23.70;100796.97;5097464;27;45442;-70
2023/07/19 09:12:53;;;;;;;;;4.75;4.00;;;;;36.35;23.94;100802.50;5097725;27;45524;-75
2023/07/19 09:15:19;;;;;;;;;2.00;2.00;;;;;36.26;23.13;100801.97;5098064;27;46789;-78
2023/07/19 09:17:48;;;;;;;;;2.50;2.50;;;;;35.92;23.36;100795.16;5096972;27;45332;-76
2023/07/19 09:20:15;;;;;;;;;2.00;2.00;;;;;35.78;23.17;100799.91;5097524;27;45263;-69
2023/07/19 09:22:42;;;;;;;;;1.50;1.50;;;;;35.74;23.39;100796.78;5096218;27;45592;-70
2023/07/19 09:25:09;;;;;;;;;1.00;1.00;;;;;35.58;23.42;100800.91;5113371;27;46553;-72
2023/07/19 09:27:36;;;;;;;;;3.00;3.00;;;;;35.56;23.37;100800.31;5096697;27;45282;-67
2023/07/19 09:30:03;;;;;;;;;1.75;1.75;;;;;35.61;23.81;100797.72;5112938;27;45284;-70
2023/07/19 09:32:29;;;;;;;;;2.50;2.50;;;;;35.79;23.49;100805.16;5079066;27;45643;-73
2023/07/19 09:34:56;;;;;;;;;1.50;1.50;;;;;36.37;22.96;100799.53;5096927;27;45575;-68
2023/07/19 09:37:22;;;;;;;;;2.00;2.00;;;;;36.46;22.65;100802.78;5099048;27;46031;-71
2023/07/19 09:39:48;;;;;;;;;4.00;4.00;;;;;36.34;22.43;100803.56;5116849;27;45358;-67
2023/07/19 09:42:14;;;;;;;;;1.75;1.75;;;;;35.76;22.70;100799.28;5098220;27;45603;-75
2023/07/19 09:44:44;;;;;;;;;2.00;2.00;;;;;35.38;23.12;100799.16;5097267;27;46066;-72
2023/07/19 09:47:10;;;;;;;;;1.75;1.75;;;;;35.48;23.42;100803.28;5098544;27;45358;-67
2023/07/19 09:49:39;;;;;;;;;1.75;1.75;;;;;35.72;23.03;100792.59;5099996;27;45405;-71
2023/07/19 09:52:05;;;;;;;;;3.00;3.00;;;;;35.64;23.18;100808.22;5099069;27;45240;-71
2023/07/19 09:54:32;;;;;;;;;1.75;1.75;;;;;35.57;23.02;100810.19;5097264;27;47274;-73
2023/07/19 09:56:58;;;;;;;;;3.25;3.25;;;;;35.61;22.76;100805.94;5112995;27;45857;-70
2023/07/19 09:59:38;;;;;;;;;5.00;5.00;;;;;35.44;22.89;100813.81;5097393;27;45477;-76
2023/07/19 10:02:03;;;;;;;;;2.00;2.00;;;;;35.29;23.09;100810.56;5097175;27;45391;-70
2023/07/19 10:04:34;;;;;;;;;4.50;4.50;;;;;35.39;23.09;100813.66;5097752;27;45334;-69
2023/07/19 10:07:10;;;;;;;;;2.25;2.25;;;;;36.05;23.20;100808.72;5097922;27;45657;-71
2023/07/19 10:09:40;;;;;;;;;4.00;4.00;;;;;36.05;22.44;100791.44;5112953;27;45464;-68
2023/07/19 10:12:23;;;;;;;;;3.00;3.00;;;;;36.50;22.31;100812.25;5096438;27;45561;-71
2023/07/19 10:15:00;;;;;;;;;3.25;3.25;;;;;36.61;22.74;100808.78;5096923;27;46035;-67
2023/07/19 10:17:26;;;;;;;;;3.50;3.50;;;;;36.44;21.90;100811.25;5097663;27;45334;-73
2023/07/19 10:20:03;;;;;;;;;2.50;2.50;;;;;36.69;21.89;100811.19;5096551;27;45404;-71
2023/07/19 10:22:58;;;;;;;;;4.25;4.25;;;;;37.06;21.79;100813.00;5112615;27;45249;-73
2023/07/19 10:25:31;;;;;;;;;4.00;4.00;;;;;37.13;21.59;100796.47;5095013;27;47281;-74
2023/07/19 10:27:59;;;;;;;;;3.00;3.00;;;;;37.17;21.75;100803.16;5096287;27;45191;-70
2023/07/19 10:30:46;;;;;;;;;3.75;3.75;;;;;37.19;21.41;100811.16;5096807;27;45449;-69
2023/07/19 10:33:13;;;;;;;;;4.00;4.00;;;;;37.40;21.09;100802.38;5096407;27;45372;-67
2023/07/19 10:35:39;;;;;;;;;4.00;4.00;;;;;37.51;20.78;100813.66;5095849;27;46962;-68
2023/07/19 10:38:05;;;;;;;;;3.75;3.75;;;;;37.49;20.63;100799.31;5111428;27;45415;-73
2023/07/19 10:40:30;;;;;;;;;4.75;4.75;;;;;37.78;20.68;100805.81;5095731;27;45345;-67
2023/07/19 10:42:56;;;;;;;;;7.25;7.25;;;;;38.45;20.48;100801.00;5096064;27;45611;-69
2023/07/19 10:45:25;;;;;;;;;3.25;3.25;;;;;38.78;20.27;100813.19;5096007;27;45507;-71
2023/07/19 10:47:51;;;;;;;;;4.50;4.50;;;;;38.93;19.97;100814.56;5111664;27;45668;-75
2023/07/19 10:50:17;;;;;;;;;3.00;3.00;;;;;39.41;19.72;100795.91;5090309;27;45454;-73
2023/07/19 10:52:45;;;;;;;;;3.00;3.00;;;;;39.66;19.41;100800.16;5090272;27;45356;-72
2023/07/19 10:55:12;;;;;;;;;2.50;2.50;;;;;39.47;19.07;100802.34;5095505;27;45982;-73
2023/07/19 10:57:37;;;;;;;;;2.50;2.50;;;;;39.60;19.21;100813.00;5089919;27;45480;-73
2023/07/19 11:00:12;;;;;;;;;4.50;4.50;;;;;39.62;19.27;100797.09;5077146;27;45816;-69
2023/07/19 11:02:39;;;;;;;;;2.25;2.25;;;;;39.09;19.27;100779.94;5075614;27;45556;-71
2023/07/19 11:05:09;;;;;;;;;4.00;4.00;;;;;39.62;19.51;100808.09;5078233;27;45432;-67
2023/07/19 11:07:35;;;;;;;;;4.25;4.25;;;;;39.80;19.24;100798.78;5078132;27;45326;-70
2023/07/19 11:10:01;;;;;;;;;3.50;3.50;;;;;39.81;18.97;100805.09;5076967;27;45469;-78
2023/07/19 11:12:28;;;;;;;;;4.75;4.75;;;;;39.94;18.81;100804.72;5079125;27;45325;-71
2023/07/19 11:14:58;;;;;;;;;3.50;3.50;;;;;39.91;18.75;100780.47;5079261;27;45921;-72
2023/07/19 11:17:28;;;;;;;;;2.25;2.25;;;;;39.85;18.59;100789.72;5079061;27;45407;-70
2023/07/19 11:19:54;;;;;;;;;4.00;4.00;;;;;39.54;18.65;100806.59;5078019;27;45521;-68